Time;durP1;ratioP1;P1;durP2;ratioP2;P2;SDS_P1;SDS_P2;PMS_P1;PMS_P2;Temp;Humidity;BMP_temperature;BMP_pressure;BME280_temperature;BME280_humidity;BME280_pressure;Samples;Min_cycle;Max_cycle;Signal;HPM_P1;HPM_P2
2023/06/30 00:00:19;;;;;;;5.90;4.70;;;;;;;17.92;71.21;99448.69;107948;1257;72758;-82
2023/06/30 00:02:47;;;;;;;6.70;5.10;;;;;;;17.88;71.35;99449.73;107912;1257;72742;-83
2023/06/30 00:05:14;;;;;;;5.90;4.50;;;;;;;17.87;71.35;99446.70;107866;1257;61001;-82
2023/06/30 00:07:42;;;;;;;6.00;4.40;;;;;;;17.83;71.33;99445.98;107958;1257;60679;-82
2023/06/30 00:10:10;;;;;;;7.40;4.20;;;;;;;17.76;71.45;99446.38;107983;1257;73661;-82
2023/06/30 00:12:37;;;;;;;6.30;4.50;;;;;;;17.76;71.54;99446.18;107928;1257;72519;-82
2023/06/30 00:15:05;;;;;;;6.30;4.50;;;;;;;17.80;71.23;99433.41;107867;1257;71051;-82
2023/06/30 00:17:32;;;;;;;6.40;4.10;;;;;;;17.79;71.01;99441.60;107851;1257;60520;-83
2023/06/30 00:19:59;;;;;;;6.40;4.10;;;;;;;17.73;71.10;99438.37;107991;1254;61071;-83
2023/06/30 00:22:27;;;;;;;6.10;4.70;;;;;;;17.59;71.47;99440.79;107885;1257;74052;-82
2023/06/30 00:24:55;;;;;;;8.20;4.40;;;;;;;17.65;71.37;99430.42;107849;1257;72783;-83
2023/06/30 00:27:23;;;;;;;7.70;4.50;;;;;;;17.68;71.19;99426.08;107914;1257;71484;-82
2023/06/30 00:29:50;;;;;;;6.50;4.70;;;;;;;17.67;71.19;99426.58;107931;1254;60445;-83
2023/06/30 00:32:18;;;;;;;5.80;4.10;;;;;;;17.66;71.14;99427.15;107924;1256;60096;-82
2023/06/30 00:34:46;;;;;;;7.00;4.70;;;;;;;17.64;71.16;99432.73;107850;1257;73820;-84
2023/06/30 00:37:14;;;;;;;7.50;4.50;;;;;;;17.58;71.38;99424.09;107833;1258;71482;-83
2023/06/30 00:39:40;;;;;;;6.20;4.40;;;;;;;17.57;71.40;99422.61;107938;1260;73129;-84
2023/06/30 00:42:08;;;;;;;6.10;4.40;;;;;;;17.58;71.55;99422.35;108002;1254;61694;-86
2023/06/30 00:44:35;;;;;;;9.60;4.60;;;;;;;17.61;71.52;99427.52;107948;1257;60391;-83
2023/06/30 00:47:02;;;;;;;7.40;4.50;;;;;;;17.60;71.44;99425.94;107798;1257;73820;-81
2023/06/30 00:49:29;;;;;;;7.20;4.50;;;;;;;17.61;71.44;99427.00;107787;1257;72743;-84
2023/06/30 00:51:56;;;;;;;5.80;4.10;;;;;;;17.60;71.54;99423.41;107603;1257;72719;-83
2023/06/30 00:54:24;;;;;;;6.60;3.90;;;;;;;17.51;71.73;99423.39;107892;1257;61997;-83
2023/06/30 00:56:51;;;;;;;5.20;4.20;;;;;;;17.54;71.60;99426.66;108020;1257;60415;-84
2023/06/30 00:59:18;;;;;;;12.00;4.80;;;;;;;17.42;71.79;99425.46;107772;1257;72567;-83
2023/06/30 01:02:22;;;;;;;6.90;4.30;;;;;;;17.39;71.98;99426.02;107838;1257;72914;-83
2023/06/30 01:04:55;;;;;;;6.40;4.20;;;;;;;17.38;71.99;99429.86;107391;1254;72529;-84
2023/06/30 01:07:32;;;;;;;7.80;4.40;;;;;;;17.43;71.78;99435.05;108068;1254;61820;-83
2023/06/30 01:10:17;;;;;;;6.20;4.10;;;;;;;17.39;71.92;99439.60;107896;1258;60465;-84
2023/06/30 01:12:44;;;;;;;5.80;4.70;;;;;;;17.40;71.90;99446.44;107874;1257;73912;-83
2023/06/30 01:15:12;;;;;;;6.90;4.40;;;;;;;17.36;71.81;99451.67;107765;1257;72826;-83
2023/06/30 01:17:53;;;;;;;6.10;4.20;;;;;;;17.36;71.79;99446.44;107891;1259;72564;-82
2023/06/30 01:20:20;;;;;;;6.40;4.70;;;;;;;17.35;71.74;99453.87;107832;1257;61994;-83
2023/06/30 01:22:58;;;;;;;6.80;4.70;;;;;;;17.33;71.74;99455.12;107679;1257;60424;-83
2023/06/30 01:25:27;;;;;;;7.10;4.30;;;;;;;17.35;71.65;99451.65;107955;1256;73762;-82
2023/06/30 01:27:58;;;;;;;6.60;4.40;;;;;;;17.34;71.65;99452.29;107827;1257;72634;-82
2023/06/30 01:30:29;;;;;;;6.20;4.10;;;;;;;17.33;71.64;99456.52;107849;1256;71420;-84
2023/06/30 01:32:58;;;;;;;7.20;4.50;;;;;;;17.35;71.62;99456.58;107783;1254;61812;-83
2023/06/30 01:35:26;;;;;;;7.30;4.50;;;;;;;17.36;71.58;99455.68;107889;1257;60325;-82
2023/06/30 01:37:55;;;;;;;7.10;4.30;;;;;;;17.37;71.53;99454.61;107805;1257;73911;-83
2023/06/30 01:40:21;;;;;;;5.80;4.30;;;;;;;17.36;71.48;99446.81;107946;1257;72657;-83
2023/06/30 01:42:52;;;;;;;6.10;4.20;;;;;;;17.38;71.50;99448.90;107934;1254;72780;-83
2023/06/30 01:45:21;;;;;;;6.80;4.20;;;;;;;17.39;71.39;99447.09;108062;1254;61891;-83
2023/06/30 01:47:48;;;;;;;7.50;4.70;;;;;;;17.48;71.05;99447.95;107803;1260;60331;-83
2023/06/30 01:50:20;;;;;;;8.30;4.30;;;;;;;17.53;70.84;99453.80;107953;1257;73819;-83
2023/06/30 01:52:47;;;;;;;6.00;4.70;;;;;;;17.57;70.66;99451.29;107877;1257;72676;-82
2023/06/30 01:55:14;;;;;;;7.00;4.30;;;;;;;17.58;70.56;99453.35;107812;1258;71173;-83
2023/06/30 01:57:41;;;;;;;7.40;4.70;;;;;;;17.54;70.73;99463.67;107906;1256;61898;-84
2023/06/30 02:00:08;;;;;;;5.60;4.00;;;;;;;17.47;71.02;99469.08;108010;1254;60377;-84
2023/06/30 02:02:41;;;;;;;9.40;4.70;;;;;;;17.48;70.99;99471.02;107983;1256;73705;-84
2023/06/30 02:05:08;;;;;;;7.80;4.30;;;;;;;17.50;71.02;99469.08;107748;1257;72836;-83
2023/06/30 02:07:36;;;;;;;8.00;4.30;;;;;;;17.52;70.83;99467.14;107849;1257;72485;-83
2023/06/30 02:10:07;;;;;;;7.00;4.50;;;;;;;17.53;70.68;99463.10;108046;1257;62048;-84
2023/06/30 02:12:35;;;;;;;6.60;4.40;;;;;;;17.56;70.58;99461.30;107816;1260;60051;-84
2023/06/30 02:15:02;;;;;;;6.80;4.40;;;;;;;17.61;70.60;99456.91;107810;1254;73867;-84
2023/06/30 02:17:35;;;;;;;6.40;4.40;;;;;;;17.66;70.49;99450.23;108032;1254;72719;-85
2023/06/30 02:20:06;;;;;;;;;;;;;;;17.71;70.28;99458.20;107902;1256;71241;-83
2023/06/30 02:22:34;;;;;;;6.70;4.30;;;;;;;17.75;70.06;99467.21;107720;1260;61992;-83
2023/06/30 02:25:02;;;;;;;7.80;4.60;;;;;;;17.78;69.84;99474.22;107885;1255;60309;-83
2023/06/30 02:27:29;;;;;;;6.90;4.20;;;;;;;17.80;69.54;99464.72;107991;1256;72793;-84
2023/06/30 02:30:05;;;;;;;6.60;4.50;;;;;;;17.83;69.40;99464.73;107798;1257;71648;-84
2023/06/30 02:32:32;;;;;;;7.80;4.10;;;;;;;17.86;69.30;99469.50;107829;1257;72703;-84
2023/06/30 02:35:00;;;;;;;6.60;4.60;;;;;;;18.01;68.83;99467.80;107778;1256;61236;-84
2023/06/30 02:37:27;;;;;;;5.70;4.40;;;;;;;18.09;68.61;99468.27;107808;1257;60375;-83
2023/06/30 02:39:55;;;;;;;6.90;4.40;;;;;;;18.14;68.44;99468.68;107921;1257;73948;-83
2023/06/30 02:42:22;;;;;;;6.90;4.30;;;;;;;18.20;68.13;99463.02;107852;1257;71689;-83
2023/06/30 02:44:49;;;;;;;6.80;4.30;;;;;;;18.20;68.14;99463.95;107885;1260;73789;-83
2023/06/30 02:47:16;;;;;;;6.90;4.60;;;;;;;18.17;68.24;99459.44;107929;1256;61827;-83
2023/06/30 02:49:43;;;;;;;5.80;4.60;;;;;;;18.20;68.15;99460.23;107863;1256;60746;-84
2023/06/30 02:52:10;;;;;;;7.10;4.50;;;;;;;18.24;67.98;99456.68;107855;1260;73907;-84
2023/06/30 02:54:37;;;;;;;5.30;4.00;;;;;;;18.29;67.89;99457.01;107998;1255;72678;-83
2023/06/30 02:57:05;;;;;;;6.80;4.40;;;;;;;18.34;67.80;99460.30;107984;1256;71425;-83
2023/06/30 02:59:35;;;;;;;7.30;4.50;;;;;;;18.35;67.68;99449.38;107856;1256;61819;-83
2023/06/30 03:02:02;;;;;;;6.80;4.30;;;;;;;18.38;67.54;99455.84;107867;1258;60472;-83
2023/06/30 03:04:31;;;;;;;7.70;4.80;;;;;;;18.42;67.34;99457.17;107782;1257;74184;-82
2023/06/30 03:06:59;;;;;;;6.60;4.30;;;;;;;18.43;66.97;99458.23;107809;1257;73652;-84
2023/06/30 03:09:26;;;;;;;5.40;4.40;;;;;;;18.45;66.97;99456.14;107809;1257;72532;-82
2023/06/30 03:11:53;;;;;;;7.30;4.80;;;;;;;18.46;66.83;99455.23;107790;1257;61004;-83
2023/06/30 03:14:21;;;;;;;8.40;4.80;;;;;;;18.49;66.88;99455.27;107804;1256;60075;-84
2023/06/30 03:16:48;;;;;;;6.70;4.40;;;;;;;18.54;66.99;99458.20;107741;1256;73732;-82
2023/06/30 03:19:16;;;;;;;7.30;4.50;;;;;;;18.59;66.82;99461.13;107825;1256;72747;-83
2023/06/30 03:21:43;;;;;;;5.80;4.80;;;;;;;18.65;66.76;99460.31;107773;1256;72776;-84
2023/06/30 03:24:10;;;;;;;5.40;4.40;;;;;;;18.69;66.62;99460.16;107621;1256;62050;-82
2023/06/30 03:26:38;;;;;;;5.60;4.60;;;;;;;18.75;66.56;99461.84;107952;1256;60428;-84
2023/06/30 03:29:08;;;;;;;8.80;4.60;;;;;;;18.81;66.37;99458.55;107900;1256;73677;-82
2023/06/30 03:31:35;;;;;;;6.20;4.80;;;;;;;18.89;66.47;99461.05;107860;1257;72610;-82
2023/06/30 03:34:03;;;;;;;6.50;4.70;;;;;;;18.96;66.02;99465.60;107980;1255;71077;-83
2023/06/30 03:36:31;;;;;;;7.00;4.60;;;;;;;19.04;65.67;99460.09;108034;1255;62005;-83
2023/06/30 03:38:58;;;;;;;6.00;4.40;;;;;;;19.10;65.52;99454.02;107901;1257;60359;-83
2023/06/30 03:41:26;;;;;;;6.80;4.40;;;;;;;19.27;65.22;99455.23;107821;1257;73872;-83
2023/06/30 03:43:53;;;;;;;6.10;4.40;;;;;;;19.34;64.78;99450.65;107873;1257;72775;-84
2023/06/30 03:46:21;;;;;;;6.50;4.80;;;;;;;19.37;64.39;99453.21;107882;1257;72465;-83
2023/06/30 03:48:47;;;;;;;6.00;4.70;;;;;;;19.38;63.82;99458.56;107812;1256;60885;-83
2023/06/30 03:51:14;;;;;;;5.40;4.40;;;;;;;19.33;63.95;99461.37;107846;1257;60543;-83
2023/06/30 03:53:49;;;;;;;9.40;4.70;;;;;;;19.33;64.47;99469.17;107825;1257;73704;-82
2023/06/30 03:56:16;;;;;;;6.90;4.60;;;;;;;19.39;64.12;99466.58;107864;1260;72734;-83
2023/06/30 03:58:43;;;;;;;5.60;4.50;;;;;;;19.43;63.96;99465.84;107797;1257;72621;-83
2023/06/30 04:01:11;;;;;;;5.40;4.70;;;;;;;19.45;63.69;99456.53;107818;1257;61015;-84
2023/06/30 04:03:38;;;;;;;6.30;4.70;;;;;;;19.46;63.50;99459.58;107877;1257;60485;-84
2023/06/30 04:06:05;;;;;;;6.40;4.50;;;;;;;19.46;63.26;99466.52;107860;1257;74298;-83
2023/06/30 04:08:35;;;;;;;9.90;5.10;;;;;;;19.49;63.53;99467.30;107877;1257;72740;-83
2023/06/30 04:11:02;;;;;;;6.50;5.30;;;;;;;19.57;63.57;99471.18;107855;1257;72495;-82
2023/06/30 04:13:29;;;;;;;7.70;5.20;;;;;;;19.60;63.34;99469.52;107833;1257;60403;-83
2023/06/30 04:15:56;;;;;;;5.80;4.90;;;;;;;19.63;63.04;99462.60;107859;1257;61042;-83
2023/06/30 04:18:23;;;;;;;6.20;4.80;;;;;;;19.67;63.11;99465.92;107805;1257;74097;-82
2023/06/30 04:20:49;;;;;;;6.50;5.10;;;;;;;19.72;63.18;99464.91;107853;1257;72039;-83
2023/06/30 04:23:16;;;;;;;7.10;5.10;;;;;;;19.79;63.00;99458.83;107793;1257;72559;-83
2023/06/30 04:25:43;;;;;;;7.10;5.10;;;;;;;19.82;62.66;99461.39;107798;1257;60473;-82
2023/06/30 04:28:11;;;;;;;6.60;5.30;;;;;;;19.86;62.43;99457.55;107821;1257;60349;-82
2023/06/30 04:30:38;;;;;;;5.40;4.70;;;;;;;19.94;62.58;99463.41;107801;1257;72321;-82
2023/06/30 04:33:05;;;;;;;6.80;5.10;;;;;;;20.00;62.23;99463.64;107829;1257;72819;-82
2023/06/30 04:35:32;;;;;;;7.10;5.20;;;;;;;20.04;61.96;99466.85;107808;1257;71565;-82
2023/06/30 04:37:59;;;;;;;6.20;4.50;;;;;;;20.06;61.62;99465.89;107802;1257;60993;-82
2023/06/30 04:53:50;;;;;;;6.40;5.50;;;;;;;20.35;61.39;99459.73;105539;1283;614889;-83
2023/06/30 04:56:19;;;;;;;6.00;4.90;;;;;;;20.86;59.46;99461.63;107317;1267;144113;-83
2023/06/30 04:58:49;;;;;;;6.90;5.10;;;;;;;20.87;59.45;99459.25;107457;1265;59506;-83
2023/06/30 05:01:16;;;;;;;7.90;5.80;;;;;;;20.86;59.27;99465.67;107494;1265;70381;-83
2023/06/30 05:03:43;;;;;;;6.10;5.00;;;;;;;20.88;59.30;99473.16;107461;1264;72713;-85
2023/06/30 05:06:10;;;;;;;5.80;5.10;;;;;;;20.93;59.49;99477.30;107484;1266;72407;-83
2023/06/30 05:08:37;;;;;;;7.30;5.10;;;;;;;20.95;59.47;99473.86;107492;1265;60963;-84
2023/06/30 05:11:04;;;;;;;6.50;5.30;;;;;;;20.94;59.14;99475.25;107457;1264;60019;-84
2023/06/30 05:13:35;;;;;;;6.80;5.10;;;;;;;20.93;59.46;99480.33;107676;1266;72227;-83
2023/06/30 05:16:02;;;;;;;7.20;5.40;;;;;;;20.96;59.43;99477.53;107910;1263;72599;-83
2023/06/30 05:18:29;;;;;;;7.00;5.20;;;;;;;21.03;59.64;99477.99;107691;1263;72696;-83
2023/06/30 05:20:57;;;;;;;6.30;4.80;;;;;;;21.17;59.52;99475.68;107620;1263;62114;-84
2023/06/30 05:23:24;;;;;;;7.00;5.80;;;;;;;21.33;59.04;99479.99;107916;1263;59510;-84
2023/06/30 05:25:51;;;;;;;6.20;5.50;;;;;;;21.42;58.39;99482.53;107875;1263;73035;-84
2023/06/30 05:28:18;;;;;;;5.90;4.80;;;;;;;21.48;58.10;99482.80;107570;1263;72762;-84
2023/06/30 05:30:45;;;;;;;7.20;5.70;;;;;;;21.46;57.99;99483.70;107641;1262;72791;-84
2023/06/30 05:33:12;;;;;;;7.30;5.30;;;;;;;21.47;57.78;99480.94;107548;1263;62269;-82
2023/06/30 05:35:39;;;;;;;8.90;5.50;;;;;;;21.50;57.78;99479.98;107591;1262;60330;-83
2023/06/30 05:38:06;;;;;;;6.60;5.30;;;;;;;21.53;57.80;99478.34;107585;1262;72087;-83
2023/06/30 05:40:34;;;;;;;10.10;6.00;;;;;;;21.57;57.48;99469.11;107560;1263;71402;-83
2023/06/30 05:43:01;;;;;;;7.70;5.10;;;;;;;21.61;56.94;99474.30;107486;1266;72633;-85
2023/06/30 05:45:28;;;;;;;7.70;5.00;;;;;;;21.67;56.95;99465.67;107531;1263;60607;-82
2023/06/30 05:47:56;;;;;;;6.70;5.30;;;;;;;21.90;56.82;99464.15;107495;1263;59657;-83
2023/06/30 05:50:23;;;;;;;6.80;4.90;;;;;;;22.01;56.74;99466.48;107541;1263;72906;-84
2023/06/30 05:52:50;;;;;;;6.40;5.00;;;;;;;22.13;56.46;99467.48;107523;1263;71851;-84
2023/06/30 05:55:17;;;;;;;7.10;5.70;;;;;;;22.17;55.89;99457.61;107537;1263;72684;-82
2023/06/30 05:57:44;;;;;;;6.60;5.70;;;;;;;22.24;55.82;99460.54;107464;1263;59564;-82
2023/06/30 06:00:13;;;;;;;6.00;5.40;;;;;;;22.31;55.60;99465.02;107735;1260;60187;-82
2023/06/30 06:02:44;;;;;;;7.10;4.80;;;;;;;22.31;55.25;99460.58;107727;1260;73040;-81
2023/06/30 06:05:11;;;;;;;8.40;5.40;;;;;;;22.35;55.25;99460.02;107772;1259;72728;-81
2023/06/30 06:07:40;;;;;;;6.90;5.40;;;;;;;22.33;54.86;99462.41;107698;1259;72698;-82
2023/06/30 06:10:08;;;;;;;7.00;4.90;;;;;;;22.34;54.94;99466.38;107800;1260;60309;-83
2023/06/30 06:12:38;;;;;;;7.40;5.20;;;;;;;22.43;55.11;99464.98;107739;1259;59609;-83
2023/06/30 06:15:07;;;;;;;6.90;5.30;;;;;;;22.58;55.12;99463.38;107775;1260;72875;-84
2023/06/30 06:17:36;;;;;;;6.00;5.20;;;;;;;22.64;54.68;99459.10;107772;1260;71739;-81
2023/06/30 06:20:03;;;;;;;6.80;4.80;;;;;;;22.63;54.95;99456.52;107638;1259;71187;-83
2023/06/30 06:22:30;;;;;;;6.60;4.90;;;;;;;22.73;54.73;99455.52;107662;1259;61831;-82
2023/06/30 06:24:58;;;;;;;8.40;5.30;;;;;;;22.82;54.20;99463.58;107760;1259;60327;-83
2023/06/30 06:27:28;;;;;;;6.70;5.30;;;;;;;22.89;53.86;99463.39;107777;1259;72722;-84
2023/06/30 06:29:57;;;;;;;6.30;5.60;;;;;;;22.94;53.62;99464.03;107733;1259;72739;-83
2023/06/30 06:32:23;;;;;;;6.30;5.10;;;;;;;22.98;53.26;99461.81;107708;1259;71216;-82
2023/06/30 06:34:50;;;;;;;7.90;5.80;;;;;;;22.96;53.26;99466.23;107735;1260;61802;-83
2023/06/30 06:37:19;;;;;;;6.10;5.30;;;;;;;23.04;53.22;99476.30;107793;1259;59541;-82
2023/06/30 06:39:46;;;;;;;8.70;5.40;;;;;;;23.11;53.13;99479.45;107813;1260;72841;-82
2023/06/30 06:42:13;;;;;;;8.20;5.80;;;;;;;23.16;52.94;99481.64;107831;1259;72608;-82
2023/06/30 06:44:41;;;;;;;7.60;5.80;;;;;;;23.16;52.75;99484.81;107850;1260;72728;-83
2023/06/30 06:47:45;;;;;;;9.70;5.00;;;;;;;23.14;52.89;99483.84;107724;1260;59530;-83
2023/06/30 06:50:12;;;;;;;7.20;5.40;;;;;;;23.15;53.06;99482.09;107768;1259;59409;-82
2023/06/30 06:52:40;;;;;;;7.10;5.50;;;;;;;23.14;52.77;99480.05;107737;1259;72873;-82
2023/06/30 06:55:08;;;;;;;7.30;5.50;;;;;;;23.02;53.34;99478.00;107775;1260;72856;-81
2023/06/30 06:57:35;;;;;;;8.00;5.60;;;;;;;23.04;53.71;99475.08;107756;1260;72664;-83
2023/06/30 07:00:02;;;;;;;7.10;5.70;;;;;;;23.08;53.75;99473.97;107795;1260;60129;-82
2023/06/30 07:02:32;;;;;;;6.10;5.40;;;;;;;23.15;53.42;99477.80;107762;1260;59600;-81
2023/06/30 07:04:59;;;;;;;6.30;5.40;;;;;;;23.19;52.79;99476.20;107775;1260;73028;-82
2023/06/30 07:07:27;;;;;;;8.20;5.70;;;;;;;23.21;52.94;99479.81;107767;1260;72802;-82
2023/06/30 07:09:59;;;;;;;7.00;5.60;;;;;;;23.18;52.93;99476.52;107786;1260;71372;-82
2023/06/30 07:12:26;;;;;;;7.90;5.60;;;;;;;23.17;52.91;99473.94;107748;1260;61860;-82
2023/06/30 07:14:52;;;;;;;9.60;5.50;;;;;;;23.30;52.84;99475.27;107764;1260;59621;-83
2023/06/30 07:17:20;;;;;;;9.20;5.50;;;;;;;23.49;52.41;99477.63;107760;1260;72065;-82
2023/06/30 07:19:47;;;;;;;6.50;5.70;;;;;;;23.57;52.01;99473.23;107714;1260;72696;-82
2023/06/30 07:22:14;;;;;;;8.70;5.60;;;;;;;23.63;51.76;99475.85;107723;1259;71238;-81
2023/06/30 07:24:40;;;;;;;8.50;6.20;;;;;;;23.67;51.72;99474.98;107691;1265;61140;-82
2023/06/30 07:27:11;;;;;;;9.60;5.90;;;;;;;23.78;51.82;99471.38;107670;1260;60146;-81
2023/06/30 07:29:38;;;;;;;6.50;5.90;;;;;;;23.91;51.27;99470.27;107708;1259;73171;-83
2023/06/30 07:32:05;;;;;;;7.10;5.80;;;;;;;24.05;51.28;99466.68;107654;1260;73387;-82
2023/06/30 07:34:33;;;;;;;6.60;5.70;;;;;;;24.19;51.30;99469.94;107641;1260;71539;-83
2023/06/30 07:37:05;;;;;;;7.40;6.30;;;;;;;24.31;50.64;99465.86;107642;1260;60546;-83
2023/06/30 07:39:36;;;;;;;10.80;5.70;;;;;;;24.43;50.31;99466.83;107680;1260;60158;-83
2023/06/30 07:42:04;;;;;;;6.20;5.50;;;;;;;24.54;49.82;99464.44;107712;1260;73011;-82
2023/06/30 07:44:33;;;;;;;11.20;6.10;;;;;;;24.63;49.52;99460.77;107691;1260;73176;-83
2023/06/30 07:47:02;;;;;;;7.30;5.60;;;;;;;24.73;49.33;99461.39;107602;1265;72715;-83
2023/06/30 07:49:28;;;;;;;9.00;5.80;;;;;;;24.78;49.30;99459.63;107769;1260;59624;-81
2023/06/30 07:51:55;;;;;;;6.60;5.60;;;;;;;24.83;49.18;99458.11;107633;1260;60359;-82
2023/06/30 07:54:22;;;;;;;7.20;5.80;;;;;;;24.92;48.88;99457.23;107729;1260;73028;-83
2023/06/30 07:56:51;;;;;;;7.20;5.60;;;;;;;25.00;48.72;99454.31;107619;1260;71613;-82
2023/06/30 07:59:19;;;;;;;9.00;6.30;;;;;;;25.07;48.15;99452.95;107674;1260;72465;-83
2023/06/30 08:01:46;;;;;;;7.30;5.90;;;;;;;25.15;48.00;99452.40;107638;1260;60357;-82
2023/06/30 08:04:13;;;;;;;8.30;5.80;;;;;;;25.23;48.06;99447.59;107629;1260;60016;-83
2023/06/30 08:06:41;;;;;;;13.10;6.10;;;;;;;25.32;47.91;99449.13;107649;1260;73115;-83
2023/06/30 08:09:08;;;;;;;6.50;5.40;;;;;;;25.40;47.06;99445.73;107669;1260;72464;-82
2023/06/30 08:11:34;;;;;;;7.60;5.30;;;;;;;25.49;45.90;99448.11;107696;1260;71863;-83
2023/06/30 08:14:04;;;;;;;8.00;6.00;;;;;;;25.57;45.94;99450.95;107718;1260;60383;-83
2023/06/30 08:16:31;;;;;;;6.20;5.50;;;;;;;25.68;46.00;99440.68;107631;1260;60229;-83
2023/06/30 08:18:58;;;;;;;6.10;5.50;;;;;;;25.78;45.84;99444.63;107695;1260;72267;-83
2023/06/30 08:21:26;;;;;;;6.80;5.50;;;;;;;25.88;45.50;99447.48;107657;1260;72695;-82
2023/06/30 08:23:53;;;;;;;6.50;5.50;;;;;;;25.97;44.41;99447.58;107722;1260;72464;-82
2023/06/30 08:26:20;;;;;;;6.50;5.60;;;;;;;26.05;43.89;99450.17;107690;1260;59885;-83
2023/06/30 08:28:50;;;;;;;6.80;4.90;;;;;;;26.09;43.57;99443.54;107688;1259;60193;-83
2023/06/30 08:31:17;;;;;;;7.10;5.80;;;;;;;26.13;42.92;99442.14;107687;1259;72943;-81
2023/06/30 08:33:43;;;;;;;5.70;5.10;;;;;;;26.18;43.38;99439.56;107676;1260;71447;-82
2023/06/30 08:36:10;;;;;;;7.20;5.60;;;;;;;26.25;43.53;99437.46;107694;1260;72622;-82
2023/06/30 08:38:37;;;;;;;6.20;5.60;;;;;;;26.31;43.40;99443.63;107752;1260;59733;-81
2023/06/30 08:41:04;;;;;;;5.90;5.30;;;;;;;26.38;43.44;99439.58;107768;1260;59491;-82
2023/06/30 08:43:31;;;;;;;7.30;5.50;;;;;;;26.44;43.16;99444.98;107824;1260;73082;-81
2023/06/30 08:46:01;;;;;;;8.00;5.40;;;;;;;26.49;42.83;99442.58;107755;1260;72589;-87
2023/06/30 08:48:29;;;;;;;6.80;5.20;;;;;;;26.54;42.18;99438.58;107700;1260;72399;-83
2023/06/30 08:50:56;;;;;;;7.40;5.60;;;;;;;26.59;41.52;99438.97;107780;1263;60143;-81
2023/06/30 08:53:24;;;;;;;6.40;5.70;;;;;;;26.63;41.46;99438.02;107702;1260;60373;-82
2023/06/30 08:55:51;;;;;;;6.90;5.20;;;;;;;26.71;42.10;99438.73;107689;1260;73053;-83
2023/06/30 08:58:20;;;;;;;6.30;5.60;;;;;;;26.76;42.00;99442.40;107681;1260;72661;-85
2023/06/30 09:00:55;;;;;;;5.70;5.00;;;;;;;26.78;42.31;99450.77;107716;1266;72478;-84
2023/06/30 09:03:24;;;;;;;;;;;;;;;26.76;40.98;99451.48;107642;1260;60489;-83
2023/06/30 09:05:57;;;;;;;6.20;5.30;;;;;;;26.80;40.50;99446.78;107816;1260;60273;-84
2023/06/30 09:08:28;;;;;;;9.60;6.00;;;;;;;26.86;40.21;99444.57;107705;1260;72628;-82
2023/06/30 09:10:55;;;;;;;;;;;;;;;26.89;39.83;99448.80;107763;1260;72589;-83
2023/06/30 09:13:23;;;;;;;8.00;5.40;;;;;;;26.88;40.60;99438.08;107748;1263;71288;-83
2023/06/30 09:15:50;;;;;;;7.00;5.00;;;;;;;26.93;41.24;99436.97;107838;1260;60296;-82
2023/06/30 09:18:17;;;;;;;6.60;5.70;;;;;;;26.99;40.30;99440.87;107655;1260;60462;-81
2023/06/30 09:20:44;;;;;;;7.70;5.00;;;;;;;27.09;39.85;99438.58;107723;1263;72827;-82
2023/06/30 09:23:11;;;;;;;5.80;5.20;;;;;;;27.19;39.82;99438.27;107718;1264;62838;-81
2023/06/30 09:25:39;;;;;;;6.40;5.00;;;;;;;27.23;38.69;99441.92;107714;1260;72470;-80
2023/06/30 09:28:12;;;;;;;7.80;5.40;;;;;;;27.28;38.52;99448.88;107681;1260;60438;-85
2023/06/30 09:30:46;;;;;;;8.60;5.40;;;;;;;27.34;39.06;99447.77;107751;1260;60343;-82
2023/06/30 09:33:15;;;;;;;8.90;5.40;;;;;;;27.43;39.20;99444.36;107611;1260;72723;-82
2023/06/30 09:35:43;;;;;;;6.50;5.10;;;;;;;27.52;38.93;99442.52;107666;1260;64289;-83
2023/06/30 09:38:14;;;;;;;8.00;5.50;;;;;;;27.60;39.12;99435.98;107757;1260;64075;-82
2023/06/30 09:40:42;;;;;;;6.30;4.80;;;;;;;27.68;38.36;99436.89;107749;1260;60414;-82
2023/06/30 09:43:17;;;;;;;8.60;5.10;;;;;;;27.68;37.56;99435.39;107724;1260;59457;-82
2023/06/30 09:45:45;;;;;;;9.20;5.30;;;;;;;27.67;37.18;99450.05;107643;1260;63980;-83
2023/06/30 09:48:16;;;;;;;7.50;5.20;;;;;;;27.65;37.04;99433.21;107606;1260;72456;-81
2023/06/30 09:50:43;;;;;;;6.10;5.00;;;;;;;27.64;36.98;99429.00;107702;1260;72506;-83
2023/06/30 09:53:10;;;;;;;7.80;5.10;;;;;;;27.66;37.47;99429.77;107704;1260;60244;-83
2023/06/30 09:55:50;;;;;;;9.10;5.20;;;;;;;27.73;37.65;99426.83;107748;1264;60470;-81
2023/06/30 09:58:20;;;;;;;6.40;5.10;;;;;;;27.83;38.42;99424.83;107777;1263;64972;-80
2023/06/30 10:00:47;;;;;;;8.90;5.40;;;;;;;27.92;38.47;99424.23;107751;1260;71178;-83
2023/06/30 10:03:18;;;;;;;6.00;4.90;;;;;;;27.89;38.69;99422.52;107719;1260;72648;-81
2023/06/30 10:05:48;;;;;;;7.00;5.40;;;;;;;27.97;38.90;99415.80;107776;1260;60307;-82
2023/06/30 10:08:17;;;;;;;6.90;5.30;;;;;;;28.02;38.76;99409.58;107748;1260;60332;-83
2023/06/30 10:10:45;;;;;;;7.50;5.30;;;;;;;28.13;38.09;99417.52;107776;1260;65297;-83
2023/06/30 10:13:12;;;;;;;6.90;5.70;;;;;;;28.23;37.53;99422.52;107724;1264;64175;-82
2023/06/30 10:15:40;;;;;;;11.30;5.40;;;;;;;28.27;37.22;99414.24;107787;1260;64155;-81
2023/06/30 10:18:10;;;;;;;6.90;5.30;;;;;;;28.33;37.62;99417.26;107690;1259;60279;-83
2023/06/30 10:20:38;;;;;;;5.70;5.10;;;;;;;28.36;37.90;99413.86;107728;1260;60545;-83
2023/06/30 10:23:19;;;;;;;7.20;5.50;;;;;;;28.36;37.80;99407.42;107758;1260;65219;-81
2023/06/30 10:25:47;;;;;;;7.40;5.30;;;;;;;28.36;37.14;99414.49;107741;1260;64126;-82
2023/06/30 10:28:16;;;;;;;7.30;5.10;;;;;;;28.39;37.10;99409.38;107733;1260;71049;-83
2023/06/30 10:30:43;;;;;;;6.40;4.90;;;;;;;28.48;37.29;99412.84;107750;1260;60462;-83
2023/06/30 10:33:12;;;;;;;8.60;5.40;;;;;;;28.59;36.25;99409.53;107589;1260;60181;-84
2023/06/30 10:35:39;;;;;;;6.70;5.30;;;;;;;28.59;35.99;99407.34;107706;1260;65206;-83
2023/06/30 10:38:06;;;;;;;7.70;5.30;;;;;;;28.48;35.71;99410.27;107729;1264;64191;-81
2023/06/30 10:40:34;;;;;;;6.30;5.70;;;;;;;28.28;35.70;99398.95;107753;1260;63800;-84
2023/06/30 10:43:05;;;;;;;5.90;5.00;;;;;;;28.03;39.20;99412.71;107684;1260;60537;-82
2023/06/30 10:45:55;;;;;;;7.80;5.50;;;;;;;27.52;40.19;99410.48;107704;1260;59441;-84
2023/06/30 10:48:23;;;;;;;7.10;5.60;;;;;;;26.89;40.53;99406.98;107701;1260;73937;-84
2023/06/30 10:50:50;;;;;;;7.30;5.10;;;;;;;26.61;41.04;99408.85;107555;1265;71633;-81
2023/06/30 10:53:17;;;;;;;6.90;5.40;;;;;;;26.49;41.76;99401.57;107558;1261;72942;-82
2023/06/30 10:55:46;;;;;;;7.50;5.50;;;;;;;26.49;41.45;99401.58;107721;1260;60482;-82
2023/06/30 10:58:24;;;;;;;7.00;5.30;;;;;;;26.57;40.74;99398.77;107705;1260;60274;-81
2023/06/30 11:01:04;;;;;;;6.30;5.10;;;;;;;26.76;40.12;99397.70;107726;1265;73737;-83
2023/06/30 11:03:57;;;;;;;5.60;5.00;;;;;;;27.05;39.57;99394.73;107704;1260;72587;-82
2023/06/30 11:06:25;;;;;;;6.80;5.50;;;;;;;27.38;38.77;99389.55;107667;1260;71087;-83
2023/06/30 11:09:11;;;;;;;6.90;5.60;;;;;;;27.58;38.14;99381.76;107710;1262;60319;-81
2023/06/30 11:11:51;;;;;;;8.00;5.70;;;;;;;27.77;37.11;99387.39;107712;1260;59276;-81
2023/06/30 11:14:32;;;;;;;6.20;5.30;;;;;;;27.91;36.83;99370.76;107716;1260;73740;-82
2023/06/30 11:17:04;;;;;;;7.00;5.10;;;;;;;28.04;36.79;99373.65;107690;1266;64094;-83
2023/06/30 11:19:35;;;;;;;7.90;5.20;;;;;;;28.16;36.38;99366.58;107718;1261;63814;-82
2023/06/30 11:22:25;;;;;;;6.50;5.40;;;;;;;28.26;36.07;99363.50;107661;1260;59506;-81
2023/06/30 11:24:52;;;;;;;6.60;5.10;;;;;;;28.38;35.98;99356.27;107813;1259;59254;-82
2023/06/30 11:27:19;;;;;;;6.60;5.60;;;;;;;28.42;35.36;99344.88;107721;1260;64996;-83
2023/06/30 11:29:50;;;;;;;7.30;5.70;;;;;;;28.46;35.77;99352.98;107700;1261;62883;-82
2023/06/30 11:32:25;;;;;;;7.10;5.40;;;;;;;28.54;35.74;99355.98;107565;1266;62641;-81
2023/06/30 11:34:52;;;;;;;5.50;4.80;;;;;;;28.68;35.21;99352.06;107718;1261;60521;-83
2023/06/30 11:37:19;;;;;;;6.80;5.30;;;;;;;28.66;35.47;99352.55;107736;1260;60346;-84
2023/06/30 11:39:54;;;;;;;6.40;5.30;;;;;;;28.61;35.66;99352.61;107743;1260;65246;-82
2023/06/30 11:42:21;;;;;;;6.40;5.40;;;;;;;28.51;35.89;99357.88;107710;1264;62893;-83
2023/06/30 11:44:49;;;;;;;6.20;5.00;;;;;;;28.33;36.28;99360.86;107758;1261;63826;-83
2023/06/30 11:47:18;;;;;;;8.30;4.20;;;;;;;28.07;35.85;99387.02;107676;1260;60335;-83